Country
Station

 

Weather  for  Norrkoping  -  Sweden    Sweden

  
12 °C (54 °F)
    
 
 

Current METAR for Norrkoping is :

ESSP 180950Z 30013KT CAVOK 12/06 Q1011

 

This is a report for Norrkoping - Sweden.
 
The report was made 25 minutes ago, at 09:50 UTC .
The wind was blowing at a speed of 6.7 meters per second (15.0 miles per hour) from west/northwest (300°).
 
The temperature was 12 °C (54 °F), with a dew-point at 6 °C (43 °F).
The atmospheric pressure was 1011 hPa (29.85 inHg).
The relative humidity was 66.7%.
 
There were no clouds below 1500 meter (5000 feet) and no cumulonimbus clouds.
 
The overall visibility was greater than 10 kilometers (6.2 miles).
 

 
 
 
 

Country :   A   B   C   D   E   F   G   H   I   J   K   L   M   N   O   P   Q   R   S   T   U   V   W   Y   Z

 

Site Info  |  Disclaimer  |  Credits  |  Privacy
Contact us  |  Add to favorites
© 2013-2019 METARs - All rights reserved